Time;durP1;ratioP1;P1;durP2;ratioP2;P2;SDS_P1;SDS_P2;PMS_P1;PMS_P2;Temp;Humidity;BMP_temperature;BMP_pressure;BME280_temperature;BME280_humidity;BME280_pressure;Samples;Min_cycle;Max_cycle;Signal;HPM_P1;HPM_P2
2022/09/15 00:01:58;;;;;;;;;;;16.80;99.90;;;;;;5047165;28;19917;-77
2022/09/15 00:04:24;;;;;;;;;;;16.80;99.90;;;;;;5060560;28;20206;-77
2022/09/15 00:06:49;;;;;;;;;;;16.80;99.90;;;;;;5038917;28;19916;-77
2022/09/15 00:09:15;;;;;;;;;;;16.90;99.90;;;;;;5052186;28;19908;-77
2022/09/15 00:11:41;;;;;;;;;;;16.80;99.90;;;;;;5031029;28;19952;-77
2022/09/15 00:14:06;;;;;;;;;;;16.70;99.90;;;;;;5043340;28;19917;-78
2022/09/15 00:16:32;;;;;;;;;;;16.70;99.90;;;;;;5047677;28;19916;-77
2022/09/15 00:18:59;;;;;;;;;;;16.60;99.90;;;;;;5045117;28;19912;-77
2022/09/15 00:21:26;;;;;;;;;;;16.60;99.90;;;;;;5046867;28;19916;-77
2022/09/15 00:23:51;;;;;;;;;;;16.60;99.90;;;;;;5040135;28;20323;-78
2022/09/15 00:26:19;;;;;;;;;;;16.60;99.90;;;;;;5046822;28;19913;-77
2022/09/15 00:28:44;;;;;;;;;;;16.60;99.90;;;;;;5039473;28;20081;-77
2022/09/15 00:31:12;;;;;;;;;;;16.60;99.90;;;;;;5039550;28;19999;-77
2022/09/15 00:33:37;;;;;;;;;;;16.50;99.90;;;;;;5051421;28;19913;-77
2022/09/15 00:36:04;;;;;;;;;;;16.50;99.90;;;;;;5045275;28;19936;-77
2022/09/15 00:38:30;;;;;;;;;;;16.60;99.90;;;;;;5050393;28;20015;-77
2022/09/15 00:40:56;;;;;;;;;;;16.70;99.90;;;;;;5048601;28;20058;-77
2022/09/15 00:43:41;;;;;;;;;;;16.60;99.90;;;;;;5035848;28;20291;-77
2022/09/15 00:46:06;;;;;;;;;;;16.70;99.90;;;;;;5045124;28;19909;-77
2022/09/15 00:48:32;;;;;;;;;;;16.70;99.90;;;;;;5040359;28;20366;-77
2022/09/15 00:50:59;;;;;;;;;;;16.60;99.90;;;;;;5045082;28;20371;-77
2022/09/15 00:53:25;;;;;;;;;;;16.60;99.90;;;;;;5035918;28;19935;-77
2022/09/15 00:55:50;;;;;;;;;;;16.50;99.90;;;;;;5049509;28;19913;-77
2022/09/15 00:58:33;;;;;;;;;;;16.40;99.90;;;;;;5047060;28;20296;-77
2022/09/15 01:01:00;;;;;;;;;;;16.60;99.90;;;;;;5045163;28;19919;-77
2022/09/15 01:03:28;;;;;;;;;;;16.50;99.90;;;;;;5042093;28;19960;-77
2022/09/15 01:05:56;;;;;;;;;;;16.40;99.90;;;;;;5035799;28;20419;-77
2022/09/15 01:08:31;;;;;;;;;;;16.50;99.90;;;;;;5047976;28;19935;-77
2022/09/15 01:10:57;;;;;;;;;;;16.40;99.90;;;;;;5047382;28;19970;-77
2022/09/15 01:13:23;;;;;;;;;;;16.40;99.90;;;;;;5046735;28;19913;-77
2022/09/15 01:15:58;;;;;;;;;;;16.20;99.90;;;;;;5032176;28;19913;-77
2022/09/15 01:18:23;;;;;;;;;;;16.20;99.90;;;;;;5044947;28;19935;-77
2022/09/15 01:20:55;;;;;;;;;;;16.20;99.90;;;;;;5035294;28;19916;-77
2022/09/15 01:23:35;;;;;;;;;;;16.10;99.90;;;;;;5047353;28;19912;-78
2022/09/15 01:26:12;;;;;;;;;;;16.10;99.90;;;;;;5042106;28;19923;-77
2022/09/15 01:28:53;;;;;;;;;;;16.10;99.90;;;;;;5036668;28;19909;-77
2022/09/15 01:31:23;;;;;;;;;;;16.00;99.90;;;;;;5043048;28;19962;-77
2022/09/15 01:33:53;;;;;;;;;;;16.00;99.90;;;;;;5048676;28;19912;-77
2022/09/15 01:36:26;;;;;;;;;;;16.00;99.90;;;;;;5047033;28;19912;-76
2022/09/15 01:39:02;;;;;;;;;;;16.00;99.90;;;;;;5044262;28;20002;-77
2022/09/15 01:41:41;;;;;;;;;;;16.00;99.90;;;;;;5046826;28;19924;-77
2022/09/15 01:44:10;;;;;;;;;;;16.00;99.90;;;;;;5037604;28;19908;-76
2022/09/15 01:46:39;;;;;;;;;;;15.90;99.90;;;;;;5045525;28;19923;-76
2022/09/15 01:49:06;;;;;;;;;;;15.70;99.90;;;;;;5042790;28;19912;-77
2022/09/15 01:51:32;;;;;;;;;;;15.70;99.90;;;;;;5046611;28;19967;-77
2022/09/15 01:54:00;;;;;;;;;;;15.60;99.90;;;;;;5049547;28;19913;-77
2022/09/15 01:56:25;;;;;;;;;;;15.60;99.90;;;;;;5047333;28;19913;-77
2022/09/15 01:58:51;;;;;;;;;;;15.70;99.90;;;;;;5042466;28;19958;-77
2022/09/15 02:01:39;;;;;;;;;;;15.60;99.90;;;;;;5035298;28;19988;-77
2022/09/15 02:04:17;;;;;;;;;;;15.60;99.90;;;;;;5028550;28;20509;-76
2022/09/15 02:06:45;;;;;;;;;;;15.50;99.90;;;;;;5022828;28;19924;-77
2022/09/15 02:09:18;;;;;;;;;;;15.50;99.90;;;;;;5023145;28;20384;-77
2022/09/15 02:12:02;;;;;;;;;;;15.50;99.90;;;;;;5022879;28;19909;-77
2022/09/15 02:14:48;;;;;;;;;;;15.60;99.90;;;;;;5024572;28;19912;-77
2022/09/15 02:17:15;;;;;;;;;;;15.60;99.90;;;;;;5021330;28;19960;-77
2022/09/15 02:19:44;;;;;;;;;;;15.60;99.90;;;;;;5031954;28;19913;-77
2022/09/15 02:22:29;;;;;;;;;;;15.60;99.90;;;;;;5018123;28;19913;-77
2022/09/15 02:25:06;;;;;;;;;;;15.60;99.90;;;;;;5040958;28;19917;-77
2022/09/15 02:27:36;;;;;;;;;;;15.60;99.90;;;;;;5029555;28;19952;-77
2022/09/15 02:30:05;;;;;;;;;;;15.60;99.90;;;;;;5026232;28;19913;-76
2022/09/15 02:32:33;;;;;;;;;;;15.60;99.90;;;;;;5042386;28;19991;-77
2022/09/15 02:34:59;;;;;;;;;;;15.60;99.90;;;;;;5045658;28;19913;-77
2022/09/15 02:37:25;;;;;;;;;;;15.60;99.90;;;;;;5043294;28;20034;-77
2022/09/15 02:39:53;;;;;;;;;;;15.50;99.90;;;;;;5055228;28;19936;-77
2022/09/15 02:42:29;;;;;;;;;;;15.50;99.90;;;;;;5036743;28;19917;-77
2022/09/15 02:44:55;;;;;;;;;;;15.60;99.90;;;;;;5044838;28;19919;-77
2022/09/15 02:47:21;;;;;;;;;;;15.60;99.90;;;;;;5048920;28;19913;-77
2022/09/15 02:49:48;;;;;;;;;;;15.50;99.90;;;;;;5043392;28;19963;-77
2022/09/15 02:52:13;;;;;;;;;;;15.50;99.90;;;;;;5046272;28;19959;-77
2022/09/15 02:54:39;;;;;;;;;;;15.50;99.90;;;;;;5040519;28;19917;-77
2022/09/15 02:57:04;;;;;;;;;;;15.50;99.90;;;;;;5036334;28;19912;-77
2022/09/15 03:00:11;;;;;;;;;;;15.60;99.90;;;;;;5042546;28;19916;-77
2022/09/15 03:02:19;;;;;;;;;;;15.50;99.90;;;;;;5056975;28;20704;-77
2022/09/15 03:04:45;;;;;;;;;;;15.60;99.90;;;;;;5051042;28;20356;-77
2022/09/15 03:07:10;;;;;;;;;;;15.60;99.90;;;;;;5047608;28;20333;-77
2022/09/15 03:09:36;;;;;;;;;;;15.60;99.90;;;;;;5045087;28;19917;-77
2022/09/15 03:12:02;;;;;;;;;;;15.60;99.90;;;;;;5034284;28;20011;-77
2022/09/15 03:14:28;;;;;;;;;;;15.50;99.90;;;;;;5037000;28;19980;-77
2022/09/15 03:16:54;;;;;;;;;;;15.50;99.90;;;;;;5039956;28;20423;-77
2022/09/15 03:19:19;;;;;;;;;;;15.50;99.90;;;;;;5044982;28;20707;-77
2022/09/15 03:21:45;;;;;;;;;;;15.50;99.90;;;;;;5035891;28;19963;-77
2022/09/15 03:24:10;;;;;;;;;;;15.60;99.90;;;;;;5038785;28;20364;-77
2022/09/15 03:26:35;;;;;;;;;;;15.60;99.90;;;;;;5048510;28;19916;-76
2022/09/15 03:29:01;;;;;;;;;;;15.60;99.90;;;;;;5050955;28;20330;-77
2022/09/15 03:31:26;;;;;;;;;;;15.50;99.90;;;;;;5049319;28;19920;-76
2022/09/15 03:33:54;;;;;;;;;;;15.60;99.90;;;;;;5042613;28;19924;-76
2022/09/15 03:36:20;;;;;;;;;;;15.60;99.90;;;;;;5049718;28;20404;-77
2022/09/15 03:38:45;;;;;;;;;;;15.60;99.90;;;;;;5044705;28;19920;-77
2022/09/15 03:41:11;;;;;;;;;;;15.50;99.90;;;;;;5045545;28;19921;-77
2022/09/15 03:43:37;;;;;;;;;;;15.50;99.90;;;;;;5037671;28;19924;-77
2022/09/15 03:46:03;;;;;;;;;;;15.60;99.90;;;;;;5025269;28;20360;-77
2022/09/15 03:48:30;;;;;;;;;;;15.50;99.90;;;;;;5050893;28;19920;-77
2022/09/15 03:50:55;;;;;;;;;;;15.50;99.90;;;;;;5038527;28;20045;-77
2022/09/15 03:53:21;;;;;;;;;;;15.50;99.90;;;;;;5049299;28;20384;-77
2022/09/15 03:55:47;;;;;;;;;;;15.40;99.90;;;;;;5057997;28;19928;-77
2022/09/15 03:58:13;;;;;;;;;;;15.40;99.90;;;;;;5048895;28;19909;-77
2022/09/15 04:00:39;;;;;;;;;;;15.40;99.90;;;;;;5034799;28;20399;-77
2022/09/15 04:03:05;;;;;;;;;;;15.40;99.90;;;;;;5047949;28;19964;-77
2022/09/15 04:05:31;;;;;;;;;;;15.40;99.90;;;;;;5037044;28;19947;-77
2022/09/15 04:07:57;;;;;;;;;;;15.50;99.90;;;;;;5040441;28;19917;-77
2022/09/15 04:10:23;;;;;;;;;;;15.50;99.90;;;;;;5045674;28;19917;-77
2022/09/15 04:12:50;;;;;;;;;;;15.50;99.90;;;;;;5045933;28;19954;-77
2022/09/15 04:15:15;;;;;;;;;;;15.50;99.90;;;;;;5047150;28;19943;-76
2022/09/15 04:17:41;;;;;;;;;;;15.50;99.90;;;;;;5044538;28;19917;-77
2022/09/15 04:20:07;;;;;;;;;;;15.60;99.90;;;;;;5056347;28;20720;-77
2022/09/15 04:22:33;;;;;;;;;;;15.60;99.90;;;;;;5049904;28;20287;-77
2022/09/15 04:24:58;;;;;;;;;;;15.60;99.90;;;;;;5047869;28;20011;-76
2022/09/15 04:27:24;;;;;;;;;;;15.70;99.90;;;;;;5049601;28;19952;-77
2022/09/15 04:29:50;;;;;;;;;;;15.80;99.90;;;;;;5049687;28;19912;-77
2022/09/15 04:32:15;;;;;;;;;;;15.80;99.90;;;;;;5048478;28;20303;-78
2022/09/15 04:34:41;;;;;;;;;;;15.80;99.90;;;;;;5038296;28;19924;-78
2022/09/15 04:37:06;;;;;;;;;;;15.80;99.90;;;;;;5046609;28;19917;-77
2022/09/15 04:39:32;;;;;;;;;;;15.80;99.90;;;;;;5047288;28;19977;-78
2022/09/15 04:41:57;;;;;;;;;;;15.70;99.90;;;;;;5042773;28;19925;-78
2022/09/15 04:44:23;;;;;;;;;;;15.70;99.90;;;;;;5050558;28;19958;-77
2022/09/15 04:46:49;;;;;;;;;;;15.70;99.90;;;;;;5045152;28;19912;-77
2022/09/15 04:49:14;;;;;;;;;;;15.60;99.90;;;;;;5054478;28;19917;-77
2022/09/15 04:51:40;;;;;;;;;;;15.60;99.90;;;;;;5041395;28;19919;-78
2022/09/15 04:54:06;;;;;;;;;;;15.60;99.90;;;;;;5057467;28;20001;-78
2022/09/15 04:56:32;;;;;;;;;;;15.50;99.90;;;;;;5038258;28;19917;-77
2022/09/15 04:58:58;;;;;;;;;;;15.50;99.90;;;;;;5047205;28;19943;-78
2022/09/15 05:01:25;;;;;;;;;;;15.50;99.90;;;;;;5045206;28;20017;-78
2022/09/15 05:03:51;;;;;;;;;;;15.50;99.90;;;;;;5040016;28;20369;-80
2022/09/15 05:06:18;;;;;;;;;;;15.60;99.90;;;;;;5041606;28;19975;-78
2022/09/15 05:08:47;;;;;;;;;;;15.60;99.90;;;;;;5040947;28;19913;-79
2022/09/15 05:11:13;;;;;;;;;;;15.60;99.90;;;;;;5032327;28;20350;-79
2022/09/15 05:13:39;;;;;;;;;;;15.70;99.90;;;;;;5032591;28;20008;-78
2022/09/15 05:16:05;;;;;;;;;;;15.70;99.90;;;;;;5032987;28;20000;-78
2022/09/15 05:18:32;;;;;;;;;;;15.70;99.90;;;;;;5047242;28;19943;-78
2022/09/15 05:21:01;;;;;;;;;;;15.80;99.90;;;;;;5031193;28;20368;-79
2022/09/15 05:23:27;;;;;;;;;;;15.70;99.90;;;;;;5032675;28;19924;-78
2022/09/15 05:26:00;;;;;;;;;;;15.70;99.90;;;;;;5042302;28;19916;-79
2022/09/15 05:28:26;;;;;;;;;;;15.70;99.90;;;;;;5044935;28;19919;-80
2022/09/15 05:30:52;;;;;;;;;;;15.70;99.90;;;;;;5043602;28;19917;-79
2022/09/15 05:33:18;;;;;;;;;;;15.70;99.90;;;;;;5035725;28;19975;-79
2022/09/15 05:35:51;;;;;;;;;;;15.70;99.90;;;;;;5030247;28;19913;-82
2022/09/15 05:38:16;;;;;;;;;;;15.70;99.90;;;;;;5030446;28;20014;-86
2022/09/15 05:40:42;;;;;;;;;;;15.80;99.90;;;;;;5042666;28;20015;-86
2022/09/15 05:43:07;;;;;;;;;;;15.80;99.90;;;;;;5051328;28;19934;-89
2022/09/15 05:45:33;;;;;;;;;;;15.70;99.90;;;;;;5035065;28;19909;-86
2022/09/15 05:47:59;;;;;;;;;;;15.70;99.90;;;;;;5049833;28;19913;-87
2022/09/15 05:50:24;;;;;;;;;;;15.70;99.90;;;;;;5046031;28;20335;-86
2022/09/15 05:52:50;;;;;;;;;;;15.80;99.90;;;;;;5034747;28;20015;-86
2022/09/15 05:55:16;;;;;;;;;;;15.80;99.90;;;;;;5042006;28;19921;-78
2022/09/15 05:57:41;;;;;;;;;;;15.80;99.90;;;;;;5048831;28;20368;-77
2022/09/15 06:00:07;;;;;;;;;;;15.80;99.90;;;;;;5053399;28;19924;-76
2022/09/15 06:02:33;;;;;;;;;;;15.90;99.90;;;;;;5044501;28;19967;-76
2022/09/15 06:04:58;;;;;;;;;;;15.80;99.90;;;;;;5044894;28;19912;-76
2022/09/15 06:07:23;;;;;;;;;;;15.90;99.90;;;;;;5050312;28;19948;-77
2022/09/15 06:09:49;;;;;;;;;;;16.00;99.90;;;;;;5045299;28;19924;-77
2022/09/15 06:12:16;;;;;;;;;;;16.10;99.90;;;;;;5031400;28;20048;-76
2022/09/15 06:14:43;;;;;;;;;;;16.10;99.90;;;;;;5046828;28;19921;-77
2022/09/15 06:17:09;;;;;;;;;;;16.20;99.90;;;;;;5045098;28;19966;-77
2022/09/15 06:19:34;;;;;;;;;;;16.20;99.90;;;;;;5034011;28;19944;-77
2022/09/15 06:22:00;;;;;;;;;;;16.30;99.90;;;;;;5047271;28;19912;-76
2022/09/15 06:24:26;;;;;;;;;;;16.30;99.90;;;;;;5047281;28;20363;-77
2022/09/15 06:26:51;;;;;;;;;;;16.30;99.90;;;;;;5048128;28;20324;-76
2022/09/15 06:29:17;;;;;;;;;;;16.30;99.90;;;;;;5046927;28;20781;-76
2022/09/15 06:31:42;;;;;;;;;;;16.30;99.90;;;;;;5047772;28;19963;-76
2022/09/15 06:34:10;;;;;;;;;;;16.40;99.90;;;;;;5039954;28;19921;-75
2022/09/15 06:36:36;;;;;;;;;;;16.40;99.90;;;;;;5038623;28;19924;-76
2022/09/15 06:39:02;;;;;;;;;;;16.40;99.90;;;;;;5044494;28;19908;-76
2022/09/15 06:41:30;;;;;;;;;;;16.60;99.90;;;;;;5045009;28;19927;-76
2022/09/15 06:43:56;;;;;;;;;;;16.60;99.90;;;;;;5047076;28;19983;-76
2022/09/15 06:46:22;;;;;;;;;;;16.90;99.90;;;;;;5045348;28;20372;-76
2022/09/15 06:48:50;;;;;;;;;;;16.90;99.90;;;;;;5042773;28;19978;-76
2022/09/15 06:51:16;;;;;;;;;;;16.90;99.90;;;;;;5044491;28;19916;-76
2022/09/15 06:53:42;;;;;;;;;;;17.00;99.90;;;;;;5042626;28;19916;-76
2022/09/15 06:56:09;;;;;;;;;;;17.00;99.90;;;;;;5035338;28;19919;-76
2022/09/15 06:58:36;;;;;;;;;;;17.00;99.90;;;;;;5048678;28;19940;-76
2022/09/15 07:01:12;;;;;;;;;;;17.10;99.90;;;;;;5039109;28;19913;-76
2022/09/15 07:03:39;;;;;;;;;;;17.00;99.90;;;;;;5046870;28;19917;-76
2022/09/15 07:06:05;;;;;;;;;;;16.90;99.90;;;;;;5024058;28;19912;-76
2022/09/15 07:08:30;;;;;;;;;;;16.80;99.90;;;;;;5046082;28;20019;-77
2022/09/15 07:10:56;;;;;;;;;;;16.80;99.90;;;;;;5052483;28;20739;-76
2022/09/15 07:13:22;;;;;;;;;;;16.70;99.90;;;;;;5040849;28;19913;-76
2022/09/15 07:15:49;;;;;;;;;;;16.60;99.90;;;;;;5048024;28;19924;-76
2022/09/15 07:18:14;;;;;;;;;;;16.60;99.90;;;;;;5043317;28;19909;-76
2022/09/15 07:20:40;;;;;;;;;;;16.60;99.90;;;;;;5050165;28;19924;-76
2022/09/15 07:23:06;;;;;;;;;;;16.60;99.90;;;;;;5052148;28;19975;-76
2022/09/15 07:25:31;;;;;;;;;;;16.60;99.90;;;;;;5036447;28;20393;-76
2022/09/15 07:27:57;;;;;;;;;;;16.70;99.90;;;;;;5048727;28;20376;-76
2022/09/15 07:30:22;;;;;;;;;;;17.00;99.90;;;;;;5050411;28;19990;-76
2022/09/15 07:32:48;;;;;;;;;;;17.20;99.90;;;;;;5042490;28;20051;-76
2022/09/15 07:35:13;;;;;;;;;;;17.20;99.90;;;;;;5038806;28;19944;-75
2022/09/15 07:37:39;;;;;;;;;;;17.30;99.90;;;;;;5047309;28;19921;-75
2022/09/15 07:40:05;;;;;;;;;;;17.50;99.90;;;;;;5052279;28;19928;-75
2022/09/15 07:42:31;;;;;;;;;;;17.80;99.90;;;;;;5038978;28;19927;-75
2022/09/15 07:44:56;;;;;;;;;;;17.70;99.90;;;;;;5049490;28;19909;-76
2022/09/15 07:47:22;;;;;;;;;;;17.80;99.90;;;;;;5046507;28;19954;-76
2022/09/15 07:49:49;;;;;;;;;;;17.80;99.90;;;;;;5050303;28;20399;-76
2022/09/15 07:52:14;;;;;;;;;;;17.70;99.90;;;;;;5045630;28;19917;-76
2022/09/15 07:54:40;;;;;;;;;;;17.70;99.90;;;;;;5051116;28;19917;-76
2022/09/15 07:57:05;;;;;;;;;;;17.90;99.90;;;;;;5051307;28;19917;-76
2022/09/15 07:59:31;;;;;;;;;;;18.30;99.90;;;;;;5036639;28;20419;-76
2022/09/15 08:01:57;;;;;;;;;;;18.50;99.90;;;;;;5049057;28;19917;-76
2022/09/15 08:04:22;;;;;;;;;;;18.50;99.90;;;;;;5048286;28;19991;-77
2022/09/15 08:06:48;;;;;;;;;;;18.60;99.90;;;;;;5045980;28;20055;-76
2022/09/15 08:09:16;;;;;;;;;;;18.60;99.90;;;;;;5047566;28;19947;-76
2022/09/15 08:11:41;;;;;;;;;;;18.20;99.90;;;;;;5050449;28;20031;-75
2022/09/15 08:14:07;;;;;;;;;;;18.20;99.90;;;;;;5040050;28;20011;-77
2022/09/15 08:16:33;;;;;;;;;;;18.40;99.90;;;;;;5042622;28;19913;-75
2022/09/15 08:18:58;;;;;;;;;;;18.40;99.90;;;;;;5036192;28;19920;-76
2022/09/15 08:21:24;;;;;;;;;;;18.60;99.90;;;;;;5049524;28;20015;-76
2022/09/15 08:23:51;;;;;;;;;;;18.80;99.90;;;;;;5046146;28;19986;-76
2022/09/15 08:26:17;;;;;;;;;;;19.00;99.90;;;;;;5026793;28;19963;-76
2022/09/15 08:28:43;;;;;;;;;;;19.30;99.90;;;;;;5051243;28;20015;-76
2022/09/15 08:31:10;;;;;;;;;;;19.60;99.90;;;;;;5044726;28;21279;-77
2022/09/15 08:33:35;;;;;;;;;;;19.40;99.90;;;;;;5038554;28;19952;-77
2022/09/15 08:36:03;;;;;;;;;;;19.60;99.90;;;;;;5039168;28;19966;-76
2022/09/15 08:38:29;;;;;;;;;;;19.50;99.90;;;;;;5046592;28;20387;-76
2022/09/15 08:41:02;;;;;;;;;;;19.60;99.90;;;;;;5054207;28;19971;-76
2022/09/15 08:43:30;;;;;;;;;;;19.60;99.90;;;;;;5048581;28;19912;-76
2022/09/15 08:46:01;;;;;;;;;;;19.70;99.90;;;;;;5047892;28;19971;-77
2022/09/15 08:48:30;;;;;;;;;;;19.80;99.90;;;;;;5038396;28;19955;-77
2022/09/15 08:50:56;;;;;;;;;;;19.70;99.90;;;;;;5049257;28;19917;-76
2022/09/15 08:53:28;;;;;;;;;;;19.40;99.90;;;;;;5044809;28;20302;-76
2022/09/15 08:55:55;;;;;;;;;;;19.40;99.90;;;;;;5043971;28;19953;-76
2022/09/15 08:58:22;;;;;;;;;;;19.10;99.90;;;;;;5050509;28;19947;-76
2022/09/15 09:00:51;;;;;;;;;;;19.00;99.90;;;;;;5047883;28;19913;-76
2022/09/15 09:03:16;;;;;;;;;;;19.00;99.90;;;;;;5053573;28;20030;-76
2022/09/15 09:05:57;;;;;;;;;;;18.80;99.90;;;;;;5037790;28;19913;-76
2022/09/15 09:08:41;;;;;;;;;;;18.80;99.90;;;;;;5047161;28;20439;-76
2022/09/15 09:11:07;;;;;;;;;;;18.80;99.90;;;;;;5050354;28;19912;-77
2022/09/15 09:13:37;;;;;;;;;;;18.80;99.90;;;;;;5050045;28;19923;-76
2022/09/15 09:16:22;;;;;;;;;;;18.80;99.90;;;;;;5041261;28;19920;-76
2022/09/15 09:18:47;;;;;;;;;;;18.80;99.90;;;;;;5037190;28;20084;-77
2022/09/15 09:21:30;;;;;;;;;;;18.90;99.90;;;;;;5047519;28;20021;-76
2022/09/15 09:24:12;;;;;;;;;;;19.10;99.90;;;;;;5044803;28;20007;-76
2022/09/15 09:26:38;;;;;;;;;;;19.20;99.90;;;;;;5045631;28;20395;-77
2022/09/15 09:29:04;;;;;;;;;;;19.40;99.90;;;;;;5048999;28;20434;-76
2022/09/15 09:31:30;;;;;;;;;;;19.40;99.90;;;;;;5040288;28;19917;-77
2022/09/15 09:34:10;;;;;;;;;;;19.30;99.90;;;;;;5034653;28;19921;-76
2022/09/15 09:36:36;;;;;;;;;;;19.30;99.90;;;;;;5046771;28;19913;-77
2022/09/15 09:39:02;;;;;;;;;;;19.50;99.90;;;;;;5061147;28;19939;-76
2022/09/15 09:41:37;;;;;;;;;;;19.50;99.90;;;;;;5046234;28;19925;-77
2022/09/15 09:44:04;;;;;;;;;;;19.40;99.90;;;;;;5049670;28;19999;-77
2022/09/15 09:46:30;;;;;;;;;;;19.40;99.90;;;;;;5026501;28;19927;-77
2022/09/15 09:48:58;;;;;;;;;;;19.20;99.90;;;;;;5045700;28;19916;-77
2022/09/15 09:51:32;;;;;;;;;;;19.20;99.90;;;;;;5044083;28;19912;-77
2022/09/15 09:54:26;;;;;;;;;;;19.40;99.90;;;;;;5036636;28;19967;-77
2022/09/15 09:56:52;;;;;;;;;;;19.60;99.90;;;;;;5040938;28;20004;-77
2022/09/15 09:59:41;;;;;;;;;;;19.80;99.90;;;;;;5039310;28;20015;-77
2022/09/15 10:02:09;;;;;;;;;;;20.00;99.90;;;;;;5035835;28;19955;-77
2022/09/15 10:04:35;;;;;;;;;;;19.80;99.90;;;;;;5049206;28;19912;-77
2022/09/15 10:07:01;;;;;;;;;;;19.80;99.90;;;;;;5047953;28;19913;-77
2022/09/15 10:09:26;;;;;;;;;;;19.80;99.90;;;;;;5044000;28;19913;-77
2022/09/15 10:11:57;;;;;;;;;;;19.70;99.90;;;;;;5035847;28;20311;-77
2022/09/15 10:14:37;;;;;;;;;;;19.80;99.90;;;;;;5049430;28;19920;-77
2022/09/15 10:17:08;;;;;;;;;;;19.70;99.90;;;;;;5042458;28;20015;-77
2022/09/15 10:19:43;;;;;;;;;;;19.50;99.90;;;;;;5044916;28;20548;-77
2022/09/15 10:22:09;;;;;;;;;;;19.50;99.90;;;;;;5044206;28;19951;-77
2022/09/15 10:24:37;;;;;;;;;;;19.60;99.90;;;;;;5045827;28;19959;-77
2022/09/15 10:27:21;;;;;;;;;;;19.70;99.90;;;;;;5037530;28;19916;-77
2022/09/15 10:29:47;;;;;;;;;;;20.00;99.90;;;;;;5047538;28;19920;-78
2022/09/15 10:32:15;;;;;;;;;;;19.90;99.90;;;;;;5047641;28;19912;-77
2022/09/15 10:34:42;;;;;;;;;;;19.90;99.90;;;;;;5048439;28;20023;-77
2022/09/15 10:37:20;;;;;;;;;;;20.00;99.90;;;;;;5040323;28;19912;-77
2022/09/15 10:39:53;;;;;;;;;;;20.00;99.90;;;;;;5041667;28;19923;-77
2022/09/15 10:42:23;;;;;;;;;;;20.20;99.90;;;;;;5038819;28;20067;-77
2022/09/15 10:45:06;;;;;;;;;;;20.20;99.90;;;;;;5044598;28;19920;-77
2022/09/15 10:47:51;;;;;;;;;;;20.10;99.00;;;;;;5050246;28;19912;-77
2022/09/15 10:50:49;;;;;;;;;;;19.90;98.50;;;;;;5046228;28;19909;-78
2022/09/15 10:53:26;;;;;;;;;;;19.50;99.20;;;;;;5024973;28;19963;-77
2022/09/15 10:56:11;;;;;;;;;;;19.40;99.90;;;;;;5047594;28;20333;-85
2022/09/15 10:58:45;;;;;;;;;;;19.40;99.90;;;;;;5042903;28;19958;-77
2022/09/15 11:01:17;;;;;;;;;;;19.80;99.90;;;;;;5042207;28;20368;-77
2022/09/15 11:04:01;;;;;;;;;;;20.40;99.30;;;;;;5048691;28;19913;-77
2022/09/15 11:06:47;;;;;;;;;;;20.40;97.90;;;;;;5046193;28;19935;-78
2022/09/15 11:09:13;;;;;;;;;;;21.00;97.30;;;;;;5037122;28;19932;-78
2022/09/15 11:11:57;;;;;;;;;;;21.50;94.00;;;;;;5036123;28;19910;-77
2022/09/15 11:14:27;;;;;;;;;;;21.60;94.30;;;;;;5047801;28;19912;-76
2022/09/15 11:17:18;;;;;;;;;;;21.60;93.90;;;;;;5051875;28;19912;-77
2022/09/15 11:19:54;;;;;;;;;;;21.00;92.70;;;;;;5042901;28;19919;-76
2022/09/15 11:22:30;;;;;;;;;;;21.10;94.80;;;;;;5056532;28;19991;-76
2022/09/15 11:25:02;;;;;;;;;;;20.70;95.10;;;;;;5042327;28;19912;-75
2022/09/15 11:27:57;;;;;;;;;;;20.60;95.10;;;;;;5046721;28;19976;-75
2022/09/15 11:30:23;;;;;;;;;;;20.50;95.10;;;;;;5019645;28;19936;-76
2022/09/15 11:33:03;;;;;;;;;;;20.40;94.20;;;;;;5048003;28;20391;-76
2022/09/15 11:35:49;;;;;;;;;;;20.30;95.10;;;;;;5020737;28;19947;-76
2022/09/15 11:38:17;;;;;;;;;;;20.10;96.20;;;;;;5042314;28;20401;-75
2022/09/15 11:41:06;;;;;;;;;;;20.10;95.70;;;;;;5038127;28;20011;-77
2022/09/15 11:43:34;;;;;;;;;;;20.30;97.00;;;;;;5032934;28;20394;-76
2022/09/15 11:46:01;;;;;;;;;;;20.70;95.30;;;;;;5038392;28;20544;-76
2022/09/15 11:48:32;;;;;;;;;;;20.60;96.60;;;;;;5043508;28;19909;-76
2022/09/15 11:51:00;;;;;;;;;;;20.80;95.20;;;;;;5049766;28;19908;-76
2022/09/15 11:53:34;;;;;;;;;;;21.00;94.20;;;;;;5047152;28;19939;-75
2022/09/15 11:56:10;;;;;;;;;;;21.40;93.80;;;;;;5049015;28;20302;-76
2022/09/15 11:58:45;;;;;;;;;;;21.50;93.00;;;;;;5043701;28;20383;-76
2022/09/15 12:01:11;;;;;;;;;;;21.80;92.70;;;;;;5049165;28;19916;-76
2022/09/15 12:03:49;;;;;;;;;;;23.20;89.50;;;;;;5032554;28;19955;-76
2022/09/15 12:06:19;;;;;;;;;;;22.20;89.90;;;;;;5040021;28;20380;-76
2022/09/15 12:09:04;;;;;;;;;;;22.00;90.80;;;;;;5048574;28;19917;-77
2022/09/15 12:11:32;;;;;;;;;;;21.50;92.10;;;;;;5043538;28;19909;-76
2022/09/15 12:13:58;;;;;;;;;;;20.60;93.70;;;;;;5041803;28;19917;-76
2022/09/15 12:16:25;;;;;;;;;;;20.40;95.40;;;;;;5047341;28;20646;-76
2022/09/15 12:18:51;;;;;;;;;;;20.20;95.00;;;;;;5048482;28;19913;-76
2022/09/15 12:21:48;;;;;;;;;;;20.10;96.20;;;;;;5046856;28;20273;-76
2022/09/15 12:24:29;;;;;;;;;;;19.80;99.40;;;;;;5026424;28;19935;-76
2022/09/15 12:26:58;;;;;;;;;;;18.90;99.90;;;;;;5051032;28;19912;-76
2022/09/15 12:29:26;;;;;;;;;;;18.80;99.90;;;;;;5040346;28;19917;-76
2022/09/15 12:32:11;;;;;;;;;;;18.20;99.90;;;;;;5046382;28;20364;-77
2022/09/15 12:34:37;;;;;;;;;;;18.40;99.90;;;;;;5046896;28;19939;-76
2022/09/15 12:37:16;;;;;;;;;;;18.10;99.90;;;;;;5033730;28;19914;-77
2022/09/15 12:39:43;;;;;;;;;;;17.70;99.90;;;;;;5045613;28;19966;-76
2022/09/15 12:42:13;;;;;;;;;;;17.90;99.90;;;;;;5041905;28;19996;-76
2022/09/15 12:44:56;;;;;;;;;;;18.10;99.90;;;;;;5045334;28;19913;-76
2022/09/15 12:47:27;;;;;;;;;;;18.50;99.90;;;;;;5040452;28;20000;-76
2022/09/15 12:49:54;;;;;;;;;;;18.40;99.90;;;;;;5044858;28;19916;-76
2022/09/15 12:52:21;;;;;;;;;;;18.40;99.90;;;;;;5053359;28;20418;-76
2022/09/15 12:54:57;;;;;;;;;;;18.50;99.90;;;;;;5045636;28;19995;-76
2022/09/15 12:57:34;;;;;;;;;;;18.60;99.90;;;;;;5046724;28;19995;-76
2022/09/15 13:00:35;;;;;;;;;;;18.70;99.90;;;;;;5036777;28;20430;-76
2022/09/15 13:03:02;;;;;;;;;;;18.60;99.90;;;;;;5007462;28;19913;-77
2022/09/15 13:05:40;;;;;;;;;;;18.50;99.90;;;;;;5028587;28;20015;-77
2022/09/15 13:08:10;;;;;;;;;;;18.60;99.90;;;;;;5041535;28;19971;-76
2022/09/15 13:10:40;;;;;;;;;;;18.40;99.90;;;;;;5046505;28;20026;-76
2022/09/15 13:13:10;;;;;;;;;;;18.40;99.90;;;;;;5048792;28;20453;-76
2022/09/15 13:15:41;;;;;;;;;;;18.30;99.90;;;;;;5040942;28;20011;-76
2022/09/15 13:18:07;;;;;;;;;;;17.40;99.90;;;;;;5034405;28;19912;-76
2022/09/15 13:20:34;;;;;;;;;;;17.60;99.90;;;;;;5033969;28;20380;-76
2022/09/15 13:23:00;;;;;;;;;;;17.80;99.90;;;;;;5045614;28;20478;-76
2022/09/15 13:25:28;;;;;;;;;;;17.60;99.90;;;;;;5045027;28;19920;-76
2022/09/15 13:27:55;;;;;;;;;;;17.40;99.90;;;;;;5042541;28;19944;-76
2022/09/15 13:30:23;;;;;;;;;;;17.60;99.90;;;;;;5044906;28;19951;-78
2022/09/15 13:32:58;;;;;;;;;;;17.40;99.90;;;;;;5046611;28;19920;-76
2022/09/15 13:35:42;;;;;;;;;;;17.60;99.90;;;;;;5043011;28;20015;-76
2022/09/15 13:38:23;;;;;;;;;;;17.20;99.90;;;;;;5038827;28;20034;-77
2022/09/15 13:40:48;;;;;;;;;;;16.40;99.90;;;;;;5044094;28;19925;-77
2022/09/15 13:43:17;;;;;;;;;;;16.60;99.90;;;;;;5040387;28;19969;-77
2022/09/15 13:46:02;;;;;;;;;;;16.90;99.90;;;;;;5043816;28;19921;-77
2022/09/15 13:48:31;;;;;;;;;;;17.50;99.90;;;;;;5047502;28;19908;-77
2022/09/15 13:50:58;;;;;;;;;;;18.00;99.90;;;;;;5045187;28;19917;-77
2022/09/15 13:53:28;;;;;;;;;;;18.00;99.90;;;;;;5037856;28;20380;-77
2022/09/15 13:55:54;;;;;;;;;;;18.20;99.90;;;;;;5043022;28;19916;-78
2022/09/15 13:58:22;;;;;;;;;;;18.20;99.90;;;;;;5043971;28;19909;-77
2022/09/15 14:01:02;;;;;;;;;;;18.00;99.90;;;;;;5040829;28;19913;-78
2022/09/15 14:03:27;;;;;;;;;;;17.90;99.90;;;;;;5036661;28;19956;-77
2022/09/15 14:05:54;;;;;;;;;;;18.20;99.90;;;;;;5039424;28;19941;-82
2022/09/15 14:08:29;;;;;;;;;;;18.10;99.90;;;;;;5046095;28;20344;-92
2022/09/15 14:11:00;;;;;;;;;;;18.10;99.90;;;;;;5039895;28;19920;-81
2022/09/15 14:13:27;;;;;;;;;;;17.90;99.90;;;;;;5044173;28;19919;-82
2022/09/15 14:15:57;;;;;;;;;;;17.80;99.90;;;;;;5041718;28;19913;-81
2022/09/15 14:18:24;;;;;;;;;;;17.70;99.90;;;;;;5029338;28;20269;-81
2022/09/15 14:20:57;;;;;;;;;;;17.50;99.90;;;;;;5046218;28;19912;-81
2022/09/15 14:23:22;;;;;;;;;;;17.50;99.90;;;;;;5035117;28;20376;-81
2022/09/15 14:25:48;;;;;;;;;;;17.50;99.90;;;;;;5048005;28;19928;-81
2022/09/15 14:28:17;;;;;;;;;;;17.40;99.90;;;;;;5044881;28;20011;-82
2022/09/15 14:30:45;;;;;;;;;;;17.70;99.90;;;;;;5044734;28;19924;-80